createdAt,value
2017-12-21T00:00:05.307Z,26.08
2017-12-21T00:02:33.613Z,24.77
2017-12-21T00:05:01.136Z,23.85
2017-12-21T00:07:29.398Z,25.77
2017-12-21T00:09:56.907Z,27.15
2017-12-21T00:12:24.406Z,27.40
2017-12-21T00:14:51.939Z,28.17
2017-12-21T00:17:19.447Z,27.85
2017-12-21T00:19:47.730Z,27.15
2017-12-21T00:22:16.001Z,25.92
2017-12-21T00:24:44.271Z,25.80
2017-12-21T00:27:12.593Z,24.42
2017-12-21T00:29:40.086Z,25.50
2017-12-21T00:32:07.597Z,24.63
2017-12-21T00:34:35.119Z,22.00
2017-12-21T00:37:02.609Z,21.17
2017-12-21T00:39:30.134Z,20.08
2017-12-21T00:41:58.419Z,22.92
2017-12-21T00:44:26.700Z,21.05
2017-12-21T00:46:54.220Z,22.13
2017-12-21T00:49:21.721Z,20.12
2017-12-21T00:51:49.309Z,21.67
2017-12-21T00:54:16.819Z,20.65
2017-12-21T00:56:44.346Z,19.80
2017-12-21T00:59:11.842Z,20.98
2017-12-21T01:01:40.119Z,18.98
2017-12-21T01:04:08.414Z,21.27
2017-12-21T01:06:35.918Z,19.65
2017-12-21T01:09:03.425Z,17.95
2017-12-21T01:11:31.682Z,18.55
2017-12-21T01:13:59.977Z,18.87
2017-12-21T01:16:28.247Z,19.23
2017-12-21T01:18:56.517Z,23.45
2017-12-21T01:21:24.791Z,20.35
2017-12-21T01:23:53.075Z,20.67
2017-12-21T01:26:21.334Z,20.08
2017-12-21T01:28:49.639Z,17.70
2017-12-21T01:31:17.154Z,17.90
2017-12-21T01:33:44.654Z,18.12
2017-12-21T01:36:12.166Z,16.58
2017-12-21T01:38:39.680Z,18.12
2017-12-21T01:41:07.244Z,16.65
2017-12-21T01:43:34.737Z,18.90
2017-12-21T01:46:02.268Z,19.60
2017-12-21T01:48:29.762Z,16.75
2017-12-21T01:50:58.038Z,18.40
2017-12-21T01:53:25.652Z,16.15
2017-12-21T01:55:53.178Z,17.75
2017-12-21T01:58:21.452Z,15.50
2017-12-21T02:00:49.710Z,15.57
2017-12-21T02:03:17.221Z,15.38
2017-12-21T02:05:44.730Z,15.07
2017-12-21T02:08:12.256Z,15.55
2017-12-21T02:10:39.772Z,15.90
2017-12-21T02:13:08.054Z,14.95
2017-12-21T02:15:36.305Z,15.30
2017-12-21T02:18:03.826Z,15.18
2017-12-21T02:20:31.714Z,13.73
2017-12-21T02:22:59.214Z,14.95
2017-12-21T02:25:26.721Z,13.00
2017-12-21T02:27:54.217Z,13.32
2017-12-21T02:30:22.499Z,13.80
2017-12-21T02:32:50.020Z,11.98
2017-12-21T02:35:17.525Z,12.65
2017-12-21T02:37:45.019Z,11.40
2017-12-21T02:40:12.551Z,12.63
2017-12-21T02:42:40.111Z,10.07
2017-12-21T02:45:07.631Z,11.95
2017-12-21T02:47:35.920Z,10.17
2017-12-21T02:50:03.507Z,10.35
2017-12-21T02:52:31.013Z,10.57
2017-12-21T02:54:58.520Z,11.30
2017-12-21T02:57:26.030Z,10.93
2017-12-21T02:59:53.530Z,12.13
2017-12-21T03:02:21.066Z,11.77
2017-12-21T03:04:49.329Z,12.43
2017-12-21T03:07:16.926Z,12.88
2017-12-21T03:09:44.435Z,12.15
2017-12-21T03:12:11.940Z,13.05
2017-12-21T03:14:39.511Z,13.65
2017-12-21T03:17:07.028Z,13.52
2017-12-21T03:19:34.551Z,15.05
2017-12-21T03:22:02.060Z,14.38
2017-12-21T03:24:30.338Z,14.87
2017-12-21T03:26:58.593Z,16.10
2017-12-21T03:29:26.307Z,16.05
2017-12-21T03:31:53.815Z,16.35
2017-12-21T03:34:21.429Z,17.85
2017-12-21T03:36:48.951Z,18.33
2017-12-21T03:39:17.222Z,18.92
2017-12-21T03:41:45.514Z,21.17
2017-12-21T03:44:13.010Z,21.12
2017-12-21T03:46:40.535Z,21.90
2017-12-21T03:49:08.046Z,22.00
2017-12-21T03:51:35.561Z,22.17
2017-12-21T03:54:03.073Z,19.42
2017-12-21T03:56:30.581Z,19.05
2017-12-21T03:58:58.127Z,19.12
2017-12-21T04:01:25.623Z,18.67
2017-12-21T04:03:53.173Z,18.10
2017-12-21T04:06:20.675Z,18.52
2017-12-21T04:08:48.963Z,19.62
2017-12-21T04:11:17.221Z,19.17
2017-12-21T04:13:45.540Z,18.60
2017-12-21T04:16:13.049Z,20.70
2017-12-21T04:18:40.565Z,18.08
2017-12-21T04:21:08.090Z,18.33
2017-12-21T04:23:36.354Z,21.12
2017-12-21T04:26:04.628Z,21.50
2017-12-21T04:28:32.139Z,22.33
2017-12-21T04:30:59.644Z,21.37
2017-12-21T04:33:27.943Z,23.17
2017-12-21T04:35:55.456Z,24.35
2017-12-21T04:38:22.963Z,25.83
2017-12-21T04:40:50.486Z,23.65
2017-12-21T04:43:18.006Z,21.17
2017-12-21T04:45:45.523Z,24.65
2017-12-21T04:48:13.786Z,23.60
2017-12-21T04:50:42.065Z,21.73
2017-12-21T04:53:10.351Z,22.73
2017-12-21T04:55:38.624Z,22.33
2017-12-21T04:58:06.920Z,23.80
2017-12-21T05:00:34.431Z,24.67
2017-12-21T05:03:01.940Z,24.25
2017-12-21T05:05:29.483Z,24.00
2017-12-21T05:07:57.755Z,24.73
2017-12-21T05:10:26.047Z,24.55
2017-12-21T05:12:53.541Z,29.05
2017-12-21T05:15:21.051Z,28.45
2017-12-21T05:17:49.330Z,25.27
2017-12-21T05:20:16.843Z,29.83
2017-12-21T05:22:44.372Z,29.52
2017-12-21T05:25:11.894Z,27.05
2017-12-21T05:27:40.185Z,27.05
2017-12-21T05:30:07.677Z,24.87
2017-12-21T05:32:35.180Z,26.58
2017-12-21T05:35:03.492Z,25.10
2017-12-21T05:37:31.014Z,26.12
2017-12-21T05:39:59.283Z,24.83
2017-12-21T05:42:26.792Z,24.42
2017-12-21T05:44:54.297Z,27.15
2017-12-21T05:47:21.793Z,28.67
2017-12-21T05:49:49.323Z,27.42
2017-12-21T05:52:17.601Z,26.62
2017-12-21T05:54:45.861Z,29.20
2017-12-21T05:57:14.139Z,26.87
2017-12-21T05:59:41.633Z,25.45
2017-12-21T06:02:09.153Z,28.12
2017-12-21T06:04:36.668Z,26.77
2017-12-21T06:07:04.175Z,26.27
2017-12-21T06:09:31.697Z,25.10
2017-12-21T06:11:59.204Z,27.45
2017-12-21T06:14:27.489Z,27.25
2017-12-21T06:16:55.745Z,27.20
2017-12-21T06:19:23.242Z,26.60
2017-12-21T06:21:50.759Z,29.08
2017-12-21T06:24:19.030Z,22.90
2017-12-21T06:26:46.555Z,26.40
2017-12-21T06:29:14.052Z,27.27
2017-12-21T06:31:41.582Z,28.65
2017-12-21T06:34:09.077Z,27.13
2017-12-21T06:36:37.338Z,31.35
2017-12-21T06:39:04.862Z,28.30
2017-12-21T06:41:32.366Z,29.15
2017-12-21T06:44:00.655Z,31.25
2017-12-21T06:46:28.932Z,33.35
2017-12-21T06:48:57.209Z,28.20
2017-12-21T06:51:25.484Z,31.45
2017-12-21T06:53:53.774Z,29.73
2017-12-21T06:56:21.265Z,28.70
2017-12-21T06:58:48.799Z,26.95
2017-12-21T07:01:16.356Z,26.33
2017-12-21T07:03:43.850Z,28.73
2017-12-21T07:06:11.471Z,28.62
2017-12-21T07:08:38.979Z,42.28
2017-12-21T07:11:06.497Z,28.48
2017-12-21T07:13:33.999Z,29.12
2017-12-21T07:16:01.531Z,29.95
2017-12-21T07:18:29.048Z,39.90
2017-12-21T07:20:57.315Z,35.00
2017-12-21T07:23:25.620Z,34.67
2017-12-21T07:25:53.127Z,35.33
2017-12-21T07:28:20.644Z,34.38
2017-12-21T07:30:48.195Z,36.00
2017-12-21T07:33:15.694Z,36.78
2017-12-21T07:35:43.207Z,35.15
2017-12-21T07:38:10.707Z,34.63
2017-12-21T07:40:38.245Z,33.72
2017-12-21T07:43:05.746Z,35.85
2017-12-21T07:45:34.028Z,34.95
2017-12-21T07:48:02.345Z,33.17
2017-12-21T07:50:29.843Z,34.65
2017-12-21T07:52:57.373Z,34.42
2017-12-21T07:55:24.882Z,33.70
2017-12-21T07:57:53.165Z,34.00
2017-12-21T08:00:21.503Z,34.00
2017-12-21T08:02:49.015Z,31.85
2017-12-21T08:05:16.575Z,33.28
2017-12-21T08:07:44.074Z,29.05
2017-12-21T08:10:11.596Z,31.70
2017-12-21T08:12:39.108Z,28.73
2017-12-21T08:15:06.711Z,29.10
2017-12-21T08:17:34.232Z,30.88
2017-12-21T08:20:01.725Z,30.45
2017-12-21T08:22:29.229Z,27.55
2017-12-21T08:24:56.725Z,27.52
2017-12-21T08:27:25.006Z,26.95
2017-12-21T08:29:52.503Z,27.92
2017-12-21T08:32:20.030Z,28.65
2017-12-21T08:34:47.541Z,25.77
2017-12-21T08:37:15.085Z,27.15
2017-12-21T08:39:42.596Z,31.40
2017-12-21T08:42:10.850Z,22.85
2017-12-21T08:44:38.355Z,24.67
2017-12-21T08:47:05.865Z,23.70
2017-12-21T08:49:34.159Z,24.75
2017-12-21T08:52:02.425Z,38.53
2017-12-21T08:54:30.706Z,24.23
2017-12-21T08:56:58.988Z,24.10
2017-12-21T08:59:27.269Z,20.80
2017-12-21T09:01:55.525Z,21.73
2017-12-21T09:04:23.777Z,18.67
2017-12-21T09:06:51.290Z,19.83
2017-12-21T09:09:18.856Z,19.40
2017-12-21T09:11:46.380Z,18.42
2017-12-21T09:14:14.632Z,19.30
2017-12-21T09:16:42.168Z,19.87
2017-12-21T09:19:09.661Z,18.92
2017-12-21T09:21:37.176Z,17.60
2017-12-21T09:24:04.695Z,15.68
2017-12-21T09:26:32.986Z,17.15
2017-12-21T09:29:00.560Z,17.27
2017-12-21T09:31:28.067Z,16.40
2017-12-21T09:33:55.585Z,17.25
2017-12-21T09:36:23.078Z,15.48
2017-12-21T09:38:50.583Z,16.85
2017-12-21T09:41:18.096Z,16.52
2017-12-21T09:43:46.354Z,16.45
2017-12-21T09:46:13.875Z,17.10
2017-12-21T09:48:41.386Z,16.10
2017-12-21T09:51:08.902Z,15.20
2017-12-21T09:53:36.403Z,15.95
2017-12-21T09:56:03.902Z,14.73
2017-12-21T09:58:31.434Z,15.88
2017-12-21T10:00:59.717Z,15.32
2017-12-21T10:03:28.007Z,13.52
2017-12-21T10:05:55.512Z,13.13
2017-12-21T10:08:23.127Z,13.45
2017-12-21T10:10:50.649Z,20.92
2017-12-21T10:13:18.264Z,12.70
2017-12-21T10:15:45.788Z,15.70
2017-12-21T10:18:14.052Z,13.52
2017-12-21T10:20:41.576Z,14.05
2017-12-21T10:23:09.090Z,14.10
2017-12-21T10:25:36.617Z,15.23
2017-12-21T10:28:05.649Z,17.05
2017-12-21T10:30:33.906Z,13.23
2017-12-21T10:33:02.185Z,15.68
2017-12-21T10:35:30.455Z,15.60
2017-12-21T10:37:58.742Z,15.77
2017-12-21T10:40:27.003Z,16.17
2017-12-21T10:42:54.526Z,18.00
2017-12-21T10:45:22.036Z,20.67
2017-12-21T10:47:50.294Z,17.20
2017-12-21T10:50:17.816Z,26.40
2017-12-21T10:52:45.324Z,44.20
2017-12-21T10:55:13.601Z,22.25
2017-12-21T10:57:41.857Z,32.58
2017-12-21T11:00:09.383Z,21.87
2017-12-21T11:02:36.892Z,25.88
2017-12-21T11:05:05.162Z,24.10
2017-12-21T11:07:33.433Z,22.05
2017-12-21T11:10:01.039Z,25.17
2017-12-21T11:12:28.567Z,23.50
2017-12-21T11:14:56.836Z,24.75
2017-12-21T11:17:25.115Z,26.42
2017-12-21T11:19:53.378Z,25.75
2017-12-21T11:22:21.701Z,26.17
2017-12-21T11:24:49.197Z,26.30
2017-12-21T11:27:16.693Z,26.80
2017-12-21T11:29:44.969Z,24.85
2017-12-21T11:32:12.475Z,26.50
2017-12-21T11:34:40.754Z,34.05
2017-12-21T11:37:08.255Z,25.25
2017-12-21T11:39:36.566Z,59.90
2017-12-21T11:42:04.070Z,102.20
2017-12-21T11:44:31.570Z,32.80
2017-12-21T11:46:59.086Z,29.65
2017-12-21T11:49:26.586Z,22.60
2017-12-21T11:51:54.147Z,25.40
2017-12-21T11:54:21.664Z,23.52
2017-12-21T11:56:49.199Z,50.80
2017-12-21T11:59:16.703Z,28.40
2017-12-21T12:01:44.202Z,27.27
2017-12-21T12:04:11.720Z,27.37
2017-12-21T12:06:39.460Z,26.33
2017-12-21T12:09:06.984Z,24.92
2017-12-21T12:11:34.498Z,23.77
2017-12-21T12:14:02.858Z,24.73
2017-12-21T12:16:31.126Z,23.50
2017-12-21T12:18:58.617Z,22.92
2017-12-21T12:21:26.197Z,21.77
2017-12-21T12:23:53.687Z,19.83
2017-12-21T12:26:21.203Z,19.35
2017-12-21T12:28:48.709Z,23.17
2017-12-21T12:31:16.367Z,21.80
2017-12-21T12:33:43.870Z,19.65
2017-12-21T12:36:12.254Z,21.20
2017-12-21T12:38:39.784Z,33.80
2017-12-21T12:41:08.065Z,23.58
2017-12-21T12:43:36.355Z,23.92
2017-12-21T12:46:03.849Z,21.98
2017-12-21T12:48:31.362Z,21.43
2017-12-21T12:50:59.637Z,19.40
2017-12-21T12:53:27.169Z,20.25
2017-12-21T12:55:55.450Z,20.00
2017-12-21T12:58:22.965Z,23.00
2017-12-21T13:00:50.482Z,22.00
2017-12-21T13:03:18.773Z,23.92
2017-12-21T13:05:46.361Z,22.10
2017-12-21T13:08:13.871Z,24.00
2017-12-21T13:10:42.148Z,21.97
2017-12-21T13:13:10.434Z,23.52
2017-12-21T13:15:38.712Z,25.52
2017-12-21T13:18:07.007Z,24.37
2017-12-21T13:20:34.528Z,23.90
2017-12-21T13:23:02.043Z,25.37
2017-12-21T13:25:29.533Z,25.92
2017-12-21T13:27:57.049Z,24.90
2017-12-21T13:30:24.548Z,27.25
2017-12-21T13:32:52.063Z,23.65
2017-12-21T13:35:19.597Z,25.90
2017-12-21T13:37:47.876Z,28.75
2017-12-21T13:40:16.172Z,28.43
2017-12-21T13:42:43.688Z,28.65
2017-12-21T13:45:11.212Z,29.27
2017-12-21T13:47:38.728Z,28.50
2017-12-21T13:50:07.013Z,30.00
2017-12-21T13:52:34.584Z,31.17
2017-12-21T13:55:02.101Z,28.03
2017-12-21T13:57:30.379Z,29.58
2017-12-21T13:59:57.892Z,30.88
2017-12-21T14:02:25.425Z,28.60
2017-12-21T14:04:52.935Z,28.85
2017-12-21T14:07:20.547Z,30.53
2017-12-21T14:09:48.069Z,32.95
2017-12-21T14:12:15.566Z,27.83
2017-12-21T14:14:43.132Z,27.90
2017-12-21T14:17:10.692Z,29.40
2017-12-21T14:19:38.215Z,31.45
2017-12-21T14:22:06.501Z,28.10
2017-12-21T14:24:34.787Z,35.13
2017-12-21T14:27:02.305Z,32.70
2017-12-21T14:29:29.840Z,35.57
2017-12-21T14:31:57.347Z,33.00
2017-12-21T14:34:25.623Z,46.67
2017-12-21T14:36:53.916Z,42.88
2017-12-21T14:39:21.424Z,53.17
2017-12-21T14:41:48.951Z,52.70
2017-12-21T14:44:16.513Z,31.87
2017-12-21T14:46:44.039Z,29.08
2017-12-21T14:49:11.533Z,41.55
2017-12-21T14:51:39.059Z,40.33
2017-12-21T14:54:07.337Z,28.60
2017-12-21T14:56:34.852Z,82.78
2017-12-21T14:59:02.369Z,36.78
2017-12-21T15:01:29.867Z,28.87
2017-12-21T15:03:57.378Z,25.92
2017-12-21T15:06:24.884Z,25.10
2017-12-21T15:08:52.432Z,22.60
2017-12-21T15:11:19.944Z,23.30
2017-12-21T15:13:47.459Z,24.20
2017-12-21T15:16:14.974Z,25.50
2017-12-21T15:18:42.474Z,24.50
2017-12-21T15:21:09.985Z,24.30
2017-12-21T15:23:37.499Z,25.90
2017-12-21T15:26:05.334Z,28.12
2017-12-21T15:28:32.841Z,26.15
2017-12-21T15:31:01.116Z,25.67
2017-12-21T15:33:29.408Z,27.65
2017-12-21T15:35:57.711Z,29.40
2017-12-21T15:38:25.231Z,26.70
2017-12-21T15:40:52.757Z,28.83
2017-12-21T15:43:20.296Z,25.65
2017-12-21T15:45:47.831Z,25.02
2017-12-21T15:48:15.353Z,27.48
2017-12-21T15:50:42.878Z,25.67
2017-12-21T15:53:10.401Z,35.45
2017-12-21T15:55:37.933Z,29.50
2017-12-21T15:58:06.208Z,25.15
2017-12-21T16:00:34.688Z,27.37
2017-12-21T16:03:02.293Z,23.87
2017-12-21T16:05:29.804Z,22.35
2017-12-21T16:07:57.503Z,23.95
2017-12-21T16:10:25.003Z,22.13
2017-12-21T16:12:52.529Z,25.07
2017-12-21T16:15:20.043Z,20.63
2017-12-21T16:17:48.344Z,27.77
2017-12-21T16:20:15.846Z,32.83
2017-12-21T16:22:43.352Z,27.30
2017-12-21T16:25:11.644Z,23.70
2017-12-21T16:27:39.148Z,27.30
2017-12-21T16:30:06.684Z,25.77
2017-12-21T16:32:34.192Z,23.77
2017-12-21T16:35:02.480Z,31.10
2017-12-21T16:37:30.739Z,27.17
2017-12-21T16:39:58.242Z,26.17
2017-12-21T16:42:25.745Z,29.75
2017-12-21T16:44:53.288Z,32.83
2017-12-21T16:47:20.902Z,55.95
2017-12-21T16:49:48.428Z,28.60
2017-12-21T16:52:16.708Z,28.13
2017-12-21T16:54:45.016Z,27.00
2017-12-21T16:57:12.536Z,28.50
2017-12-21T16:59:40.033Z,25.05
2017-12-21T17:02:07.590Z,24.33
2017-12-21T17:04:35.168Z,26.60
2017-12-21T17:07:02.686Z,26.50
2017-12-21T17:09:30.937Z,25.43
2017-12-21T17:11:58.451Z,23.03
2017-12-21T17:14:25.969Z,23.62
2017-12-21T17:16:53.630Z,25.00
2017-12-21T17:19:21.913Z,24.92
2017-12-21T17:21:50.212Z,24.55
2017-12-21T17:24:17.713Z,22.53
2017-12-21T17:26:45.213Z,23.67
2017-12-21T17:29:13.491Z,24.00
2017-12-21T17:31:41.784Z,22.30
2017-12-21T17:34:09.293Z,26.40
2017-12-21T17:36:36.789Z,24.42
2017-12-21T17:39:05.078Z,24.13
2017-12-21T17:41:32.570Z,22.80
2017-12-21T17:44:00.109Z,25.15
2017-12-21T17:46:27.620Z,25.10
2017-12-21T17:48:55.228Z,24.87
2017-12-21T17:51:22.726Z,24.60
2017-12-21T17:53:50.245Z,27.23
2017-12-21T17:56:17.768Z,24.33
2017-12-21T17:58:46.053Z,23.02
2017-12-21T18:01:13.570Z,22.60
2017-12-21T18:03:41.087Z,22.50
2017-12-21T18:06:08.598Z,22.23
2017-12-21T18:08:36.099Z,23.65
2017-12-21T18:11:03.645Z,21.92
2017-12-21T18:16:23.449Z,21.42
2017-12-21T18:18:50.968Z,23.37
2017-12-21T18:21:18.480Z,22.87
2017-12-21T18:23:45.998Z,23.35
2017-12-21T18:26:14.268Z,25.03
2017-12-21T18:28:41.876Z,25.02
2017-12-21T18:31:09.437Z,21.67
2017-12-21T18:33:36.981Z,24.37
2017-12-21T18:36:04.486Z,23.50
2017-12-21T18:38:31.991Z,27.25
2017-12-21T18:40:59.511Z,23.33
2017-12-21T18:43:27.034Z,25.40
2017-12-21T18:45:54.550Z,24.87
2017-12-21T18:48:22.832Z,26.08
2017-12-21T18:50:50.394Z,26.43
2017-12-21T18:53:18.669Z,25.40
2017-12-21T18:55:46.185Z,28.33
2017-12-21T18:58:13.694Z,27.83
2017-12-21T19:00:41.460Z,26.50
2017-12-21T19:03:08.988Z,26.70
2017-12-21T19:05:37.254Z,26.73
2017-12-21T19:08:04.793Z,28.00
2017-12-21T19:10:33.036Z,28.27
2017-12-21T19:13:00.557Z,28.17
2017-12-21T19:15:28.877Z,27.42
2017-12-21T19:17:56.401Z,27.65
2017-12-21T19:20:24.700Z,27.37
2017-12-21T19:22:52.209Z,26.17
2017-12-21T19:25:19.739Z,27.47
2017-12-21T19:27:47.260Z,28.25
2017-12-21T19:30:15.523Z,26.77
2017-12-21T19:32:43.038Z,28.13
2017-12-21T19:35:10.559Z,27.23
2017-12-21T19:37:38.854Z,29.97
2017-12-21T19:40:06.369Z,27.83
2017-12-21T19:42:33.911Z,29.70
2017-12-21T19:45:01.410Z,32.70
2017-12-21T19:47:28.919Z,29.43
2017-12-21T19:49:56.453Z,27.02
2017-12-21T19:52:23.998Z,25.47
2017-12-21T19:54:51.531Z,24.93
2017-12-21T19:57:19.803Z,24.90
2017-12-21T19:59:48.096Z,27.15
2017-12-21T20:02:15.608Z,27.77
2017-12-21T20:04:43.149Z,26.15
2017-12-21T20:07:10.654Z,27.25
2017-12-21T20:09:38.922Z,29.13
2017-12-21T20:12:06.458Z,29.90
2017-12-21T20:14:33.959Z,30.23
2017-12-21T20:17:01.478Z,29.37
2017-12-21T20:19:28.982Z,27.58
2017-12-21T20:21:56.572Z,28.33
2017-12-21T20:24:24.853Z,28.02
2017-12-21T20:26:52.367Z,29.70
2017-12-21T20:29:20.654Z,29.50
2017-12-21T20:31:48.181Z,28.92
2017-12-21T20:34:15.699Z,31.62
2017-12-21T20:36:43.214Z,28.77
2017-12-21T20:39:11.504Z,33.50
2017-12-21T20:41:39.012Z,29.37
2017-12-21T20:44:06.541Z,32.17
2017-12-21T20:46:34.048Z,31.83
2017-12-21T20:49:01.578Z,32.23
2017-12-21T20:51:29.103Z,34.75
2017-12-21T20:53:56.612Z,34.90
2017-12-21T20:56:24.139Z,34.70
2017-12-21T20:58:51.656Z,34.60
2017-12-21T21:01:19.951Z,34.53
2017-12-21T21:03:47.472Z,35.07
2017-12-21T21:06:15.016Z,33.60
2017-12-21T21:08:42.518Z,37.60
2017-12-21T21:11:10.037Z,36.58
2017-12-21T21:13:37.582Z,36.83
2017-12-21T21:16:05.100Z,35.17
2017-12-21T21:18:32.666Z,37.87
2017-12-21T21:21:00.194Z,36.58
2017-12-21T21:23:28.488Z,36.10
2017-12-21T21:25:56.754Z,35.27
2017-12-21T21:28:25.032Z,34.30
2017-12-21T21:30:53.319Z,34.17
2017-12-21T21:33:20.844Z,33.50
2017-12-21T21:35:48.380Z,33.10
2017-12-21T21:38:15.893Z,34.27
2017-12-21T21:40:43.410Z,37.37
2017-12-21T21:43:10.934Z,35.10
2017-12-21T21:45:38.486Z,33.88
2017-12-21T21:48:06.005Z,36.60
2017-12-21T21:50:34.253Z,35.33
2017-12-21T21:53:01.784Z,37.78
2017-12-21T21:55:29.307Z,36.83
2017-12-21T21:57:57.609Z,34.13
2017-12-21T22:00:25.177Z,38.90
2017-12-21T22:02:52.723Z,38.90
2017-12-21T22:05:20.232Z,37.30
2017-12-21T22:07:47.731Z,35.53
2017-12-21T22:10:16.032Z,37.07
2017-12-21T22:12:43.553Z,36.28
2017-12-21T22:15:11.855Z,36.70
2017-12-21T22:17:39.372Z,37.53
2017-12-21T22:20:07.704Z,37.38
2017-12-21T22:22:35.219Z,34.60
2017-12-21T22:25:03.495Z,39.10
2017-12-21T22:27:31.810Z,37.15
2017-12-21T22:29:59.310Z,36.38
2017-12-21T22:32:26.835Z,36.80
2017-12-21T22:34:54.368Z,34.67
2017-12-21T22:37:22.509Z,35.13
2017-12-21T22:39:50.123Z,33.92
2017-12-21T22:42:17.622Z,36.63
2017-12-21T22:44:45.142Z,36.42
2017-12-21T22:47:12.642Z,35.80
2017-12-21T22:49:40.176Z,35.90
2017-12-21T22:52:07.702Z,37.10
2017-12-21T22:54:35.241Z,35.28
2017-12-21T22:57:03.511Z,36.65
2017-12-21T22:59:31.802Z,39.72
2017-12-21T23:01:59.332Z,41.78
2017-12-21T23:04:26.854Z,41.40
2017-12-21T23:06:54.388Z,41.63
2017-12-21T23:09:21.900Z,39.78
2017-12-21T23:11:49.451Z,44.58
2017-12-21T23:14:16.969Z,40.90
2017-12-21T23:16:44.493Z,41.08
2017-12-21T23:19:12.820Z,42.30
2017-12-21T23:21:40.344Z,44.55
2017-12-21T23:24:07.866Z,44.38
2017-12-21T23:26:36.136Z,43.40
2017-12-21T23:29:03.669Z,43.15
2017-12-21T23:31:31.175Z,43.17
2017-12-21T23:33:59.484Z,43.30
2017-12-21T23:36:27.005Z,44.00
2017-12-21T23:38:54.510Z,46.90
2017-12-21T23:41:22.053Z,42.85
2017-12-21T23:43:49.555Z,43.17
2017-12-21T23:46:17.087Z,42.70
2017-12-21T23:48:44.654Z,43.97
2017-12-21T23:51:12.195Z,46.72
2017-12-21T23:53:40.461Z,45.15
2017-12-21T23:56:07.983Z,43.40
2017-12-21T23:58:35.499Z,42.30
